sensor_id;sensor_type;location;lat;lon;timestamp;P1;durP1;ratioP1;P2;durP2;ratioP2
70369;SDS011;57790;51.356;-2.906;2023-12-20T00:00:47;5.30;;;0.70;;
70369;SDS011;57790;51.356;-2.906;2023-12-20T00:03:47;8.47;;;1.10;;
70369;SDS011;57790;51.356;-2.906;2023-12-20T00:06:48;7.17;;;0.83;;
70369;SDS011;57790;51.356;-2.906;2023-12-20T00:09:48;4.43;;;0.87;;
70369;SDS011;57790;51.356;-2.906;2023-12-20T00:12:48;5.70;;;0.87;;
70369;SDS011;57790;51.356;-2.906;2023-12-20T00:15:49;4.60;;;0.67;;
70369;SDS011;57790;51.356;-2.906;2023-12-20T00:18:49;7.88;;;1.10;;
70369;SDS011;57790;51.356;-2.906;2023-12-20T00:21:50;8.00;;;0.77;;
70369;SDS011;57790;51.356;-2.906;2023-12-20T00:24:50;5.87;;;0.83;;
70369;SDS011;57790;51.356;-2.906;2023-12-20T00:27:50;7.13;;;1.17;;
70369;SDS011;57790;51.356;-2.906;2023-12-20T00:30:51;6.60;;;0.83;;
70369;SDS011;57790;51.356;-2.906;2023-12-20T00:33:51;8.63;;;1.30;;
70369;SDS011;57790;51.356;-2.906;2023-12-20T00:36:51;8.90;;;1.20;;
70369;SDS011;57790;51.356;-2.906;2023-12-20T00:39:52;10.70;;;1.20;;
70369;SDS011;57790;51.356;-2.906;2023-12-20T00:42:52;6.57;;;0.67;;
70369;SDS011;57790;51.356;-2.906;2023-12-20T00:45:52;6.53;;;0.70;;
70369;SDS011;57790;51.356;-2.906;2023-12-20T00:48:53;5.60;;;0.67;;
70369;SDS011;57790;51.356;-2.906;2023-12-20T00:51:53;8.47;;;0.97;;
70369;SDS011;57790;51.356;-2.906;2023-12-20T00:54:54;6.10;;;0.90;;
70369;SDS011;57790;51.356;-2.906;2023-12-20T00:57:54;8.27;;;1.00;;
70369;SDS011;57790;51.356;-2.906;2023-12-20T01:00:55;8.27;;;1.10;;
70369;SDS011;57790;51.356;-2.906;2023-12-20T01:03:55;9.57;;;0.93;;
70369;SDS011;57790;51.356;-2.906;2023-12-20T01:06:55;6.77;;;0.97;;
70369;SDS011;57790;51.356;-2.906;2023-12-20T01:09:56;5.77;;;1.20;;
70369;SDS011;57790;51.356;-2.906;2023-12-20T01:12:56;6.17;;;0.80;;
70369;SDS011;57790;51.356;-2.906;2023-12-20T01:15:56;7.28;;;0.90;;
70369;SDS011;57790;51.356;-2.906;2023-12-20T01:18:57;5.43;;;0.80;;
70369;SDS011;57790;51.356;-2.906;2023-12-20T01:21:57;4.70;;;0.80;;
70369;SDS011;57790;51.356;-2.906;2023-12-20T01:24:58;7.50;;;0.73;;
70369;SDS011;57790;51.356;-2.906;2023-12-20T01:27:58;6.13;;;0.70;;
70369;SDS011;57790;51.356;-2.906;2023-12-20T01:30:58;4.37;;;0.80;;
70369;SDS011;57790;51.356;-2.906;2023-12-20T01:33:59;4.50;;;0.67;;
70369;SDS011;57790;51.356;-2.906;2023-12-20T01:36:59;5.60;;;0.95;;
70369;SDS011;57790;51.356;-2.906;2023-12-20T01:40:00;6.50;;;1.10;;
70369;SDS011;57790;51.356;-2.906;2023-12-20T01:43:01;8.33;;;0.70;;
70369;SDS011;57790;51.356;-2.906;2023-12-20T01:46:02;5.90;;;0.80;;
70369;SDS011;57790;51.356;-2.906;2023-12-20T01:49:03;4.77;;;0.50;;
70369;SDS011;57790;51.356;-2.906;2023-12-20T01:52:03;5.53;;;0.95;;
70369;SDS011;57790;51.356;-2.906;2023-12-20T01:55:04;6.03;;;0.80;;
70369;SDS011;57790;51.356;-2.906;2023-12-20T01:58:14;7.00;;;0.88;;
70369;SDS011;57790;51.356;-2.906;2023-12-20T02:01:15;7.93;;;0.80;;
70369;SDS011;57790;51.356;-2.906;2023-12-20T02:04:16;5.90;;;0.73;;
70369;SDS011;57790;51.356;-2.906;2023-12-20T02:07:17;8.70;;;0.90;;
70369;SDS011;57790;51.356;-2.906;2023-12-20T02:10:18;6.73;;;0.67;;
70369;SDS011;57790;51.356;-2.906;2023-12-20T02:13:18;6.57;;;0.60;;
70369;SDS011;57790;51.356;-2.906;2023-12-20T02:16:19;3.90;;;0.60;;
70369;SDS011;57790;51.356;-2.906;2023-12-20T02:19:19;5.50;;;1.07;;
70369;SDS011;57790;51.356;-2.906;2023-12-20T02:22:20;6.70;;;0.93;;
70369;SDS011;57790;51.356;-2.906;2023-12-20T02:25:21;8.10;;;0.90;;
70369;SDS011;57790;51.356;-2.906;2023-12-20T02:28:21;6.50;;;0.63;;
70369;SDS011;57790;51.356;-2.906;2023-12-20T02:31:23;4.30;;;0.70;;
70369;SDS011;57790;51.356;-2.906;2023-12-20T02:34:23;6.88;;;1.13;;
70369;SDS011;57790;51.356;-2.906;2023-12-20T02:37:24;8.10;;;0.80;;
70369;SDS011;57790;51.356;-2.906;2023-12-20T02:40:24;5.50;;;0.80;;
70369;SDS011;57790;51.356;-2.906;2023-12-20T02:43:24;7.37;;;1.00;;
70369;SDS011;57790;51.356;-2.906;2023-12-20T02:46:25;5.53;;;0.70;;
70369;SDS011;57790;51.356;-2.906;2023-12-20T02:49:25;5.95;;;0.60;;
70369;SDS011;57790;51.356;-2.906;2023-12-20T02:52:25;5.47;;;0.67;;
70369;SDS011;57790;51.356;-2.906;2023-12-20T02:55:27;7.37;;;0.90;;
70369;SDS011;57790;51.356;-2.906;2023-12-20T02:58:27;4.32;;;0.70;;
70369;SDS011;57790;51.356;-2.906;2023-12-20T03:01:28;4.90;;;0.50;;
70369;SDS011;57790;51.356;-2.906;2023-12-20T03:04:29;5.30;;;0.80;;
70369;SDS011;57790;51.356;-2.906;2023-12-20T03:07:29;6.35;;;0.65;;
70369;SDS011;57790;51.356;-2.906;2023-12-20T03:10:30;6.77;;;0.80;;
70369;SDS011;57790;51.356;-2.906;2023-12-20T03:13:30;5.83;;;0.73;;
70369;SDS011;57790;51.356;-2.906;2023-12-20T03:16:31;4.57;;;0.67;;
70369;SDS011;57790;51.356;-2.906;2023-12-20T03:19:33;7.55;;;1.00;;
70369;SDS011;57790;51.356;-2.906;2023-12-20T03:22:33;7.33;;;0.90;;
70369;SDS011;57790;51.356;-2.906;2023-12-20T03:25:34;9.60;;;1.07;;
70369;SDS011;57790;51.356;-2.906;2023-12-20T03:28:34;4.82;;;0.73;;
70369;SDS011;57790;51.356;-2.906;2023-12-20T03:31:36;7.67;;;0.93;;
70369;SDS011;57790;51.356;-2.906;2023-12-20T03:34:36;5.93;;;0.70;;
70369;SDS011;57790;51.356;-2.906;2023-12-20T03:37:37;6.47;;;0.80;;
70369;SDS011;57790;51.356;-2.906;2023-12-20T03:40:37;10.27;;;1.10;;
70369;SDS011;57790;51.356;-2.906;2023-12-20T03:43:37;6.70;;;0.80;;
70369;SDS011;57790;51.356;-2.906;2023-12-20T03:46:38;6.93;;;0.97;;
70369;SDS011;57790;51.356;-2.906;2023-12-20T03:49:38;7.07;;;0.80;;
70369;SDS011;57790;51.356;-2.906;2023-12-20T03:52:38;7.90;;;1.07;;
70369;SDS011;57790;51.356;-2.906;2023-12-20T03:55:39;7.00;;;0.80;;
70369;SDS011;57790;51.356;-2.906;2023-12-20T03:58:39;5.68;;;0.80;;
70369;SDS011;57790;51.356;-2.906;2023-12-20T04:01:43;8.77;;;0.80;;
70369;SDS011;57790;51.356;-2.906;2023-12-20T04:04:44;5.70;;;0.70;;
70369;SDS011;57790;51.356;-2.906;2023-12-20T04:07:45;6.77;;;0.77;;
70369;SDS011;57790;51.356;-2.906;2023-12-20T04:10:45;6.20;;;0.63;;
70369;SDS011;57790;51.356;-2.906;2023-12-20T04:13:45;4.80;;;0.60;;
70369;SDS011;57790;51.356;-2.906;2023-12-20T04:16:46;10.27;;;0.87;;
70369;SDS011;57790;51.356;-2.906;2023-12-20T04:19:46;8.37;;;1.00;;
70369;SDS011;57790;51.356;-2.906;2023-12-20T04:22:47;3.72;;;0.63;;
70369;SDS011;57790;51.356;-2.906;2023-12-20T04:25:47;5.37;;;0.87;;
70369;SDS011;57790;51.356;-2.906;2023-12-20T04:28:47;5.63;;;0.70;;
70369;SDS011;57790;51.356;-2.906;2023-12-20T04:31:48;7.40;;;0.80;;
70369;SDS011;57790;51.356;-2.906;2023-12-20T04:34:49;7.00;;;0.75;;
70369;SDS011;57790;51.356;-2.906;2023-12-20T04:37:50;6.77;;;0.90;;
70369;SDS011;57790;51.356;-2.906;2023-12-20T04:40:50;11.93;;;1.00;;
70369;SDS011;57790;51.356;-2.906;2023-12-20T04:43:51;6.00;;;0.77;;
70369;SDS011;57790;51.356;-2.906;2023-12-20T04:46:51;8.07;;;0.80;;
70369;SDS011;57790;51.356;-2.906;2023-12-20T04:49:51;6.40;;;0.97;;
70369;SDS011;57790;51.356;-2.906;2023-12-20T04:52:52;6.80;;;0.77;;
70369;SDS011;57790;51.356;-2.906;2023-12-20T04:55:52;7.00;;;0.70;;
70369;SDS011;57790;51.356;-2.906;2023-12-20T04:58:53;8.18;;;1.33;;
70369;SDS011;57790;51.356;-2.906;2023-12-20T05:01:53;6.87;;;1.03;;
70369;SDS011;57790;51.356;-2.906;2023-12-20T05:04:54;9.10;;;0.80;;
70369;SDS011;57790;51.356;-2.906;2023-12-20T05:07:54;7.33;;;0.83;;
70369;SDS011;57790;51.356;-2.906;2023-12-20T05:10:55;6.20;;;0.83;;
70369;SDS011;57790;51.356;-2.906;2023-12-20T05:13:55;8.80;;;1.20;;
70369;SDS011;57790;51.356;-2.906;2023-12-20T05:16:56;10.47;;;0.87;;
70369;SDS011;57790;51.356;-2.906;2023-12-20T05:19:56;9.50;;;1.37;;
70369;SDS011;57790;51.356;-2.906;2023-12-20T05:22:56;7.23;;;1.00;;
70369;SDS011;57790;51.356;-2.906;2023-12-20T05:25:57;9.35;;;0.70;;
70369;SDS011;57790;51.356;-2.906;2023-12-20T05:28:58;7.00;;;0.73;;
70369;SDS011;57790;51.356;-2.906;2023-12-20T05:31:59;8.87;;;0.87;;
70369;SDS011;57790;51.356;-2.906;2023-12-20T05:34:59;10.33;;;0.70;;
70369;SDS011;57790;51.356;-2.906;2023-12-20T05:38:00;5.93;;;0.80;;
70369;SDS011;57790;51.356;-2.906;2023-12-20T05:41:00;9.20;;;1.17;;
70369;SDS011;57790;51.356;-2.906;2023-12-20T05:44:01;6.88;;;0.85;;
70369;SDS011;57790;51.356;-2.906;2023-12-20T05:47:01;8.27;;;0.70;;
70369;SDS011;57790;51.356;-2.906;2023-12-20T05:50:02;9.03;;;1.10;;
70369;SDS011;57790;51.356;-2.906;2023-12-20T05:53:02;6.73;;;0.93;;
70369;SDS011;57790;51.356;-2.906;2023-12-20T05:56:03;10.25;;;0.88;;
70369;SDS011;57790;51.356;-2.906;2023-12-20T05:59:04;7.70;;;1.00;;
70369;SDS011;57790;51.356;-2.906;2023-12-20T06:02:04;8.13;;;1.50;;
70369;SDS011;57790;51.356;-2.906;2023-12-20T06:05:05;6.45;;;0.60;;
70369;SDS011;57790;51.356;-2.906;2023-12-20T06:08:05;7.33;;;0.70;;
70369;SDS011;57790;51.356;-2.906;2023-12-20T06:11:06;5.53;;;0.65;;
70369;SDS011;57790;51.356;-2.906;2023-12-20T06:14:06;5.67;;;0.70;;
70369;SDS011;57790;51.356;-2.906;2023-12-20T06:17:07;6.27;;;1.00;;
70369;SDS011;57790;51.356;-2.906;2023-12-20T06:20:07;6.63;;;0.90;;
70369;SDS011;57790;51.356;-2.906;2023-12-20T06:23:08;8.20;;;0.80;;
70369;SDS011;57790;51.356;-2.906;2023-12-20T06:26:09;4.43;;;0.70;;
70369;SDS011;57790;51.356;-2.906;2023-12-20T06:29:09;6.33;;;0.50;;
70369;SDS011;57790;51.356;-2.906;2023-12-20T06:32:10;7.35;;;0.60;;
70369;SDS011;57790;51.356;-2.906;2023-12-20T06:35:10;5.63;;;0.80;;
70369;SDS011;57790;51.356;-2.906;2023-12-20T06:38:10;7.20;;;0.80;;
70369;SDS011;57790;51.356;-2.906;2023-12-20T06:41:12;5.63;;;0.80;;
70369;SDS011;57790;51.356;-2.906;2023-12-20T06:44:14;6.72;;;0.88;;
70369;SDS011;57790;51.356;-2.906;2023-12-20T06:47:14;6.83;;;0.80;;
70369;SDS011;57790;51.356;-2.906;2023-12-20T06:50:14;7.07;;;1.00;;
70369;SDS011;57790;51.356;-2.906;2023-12-20T06:53:15;8.75;;;1.00;;
70369;SDS011;57790;51.356;-2.906;2023-12-20T06:56:16;5.20;;;0.77;;
70369;SDS011;57790;51.356;-2.906;2023-12-20T06:59:17;5.20;;;0.73;;
70369;SDS011;57790;51.356;-2.906;2023-12-20T07:02:17;9.60;;;0.60;;
70369;SDS011;57790;51.356;-2.906;2023-12-20T07:05:18;6.80;;;0.70;;
70369;SDS011;57790;51.356;-2.906;2023-12-20T07:08:19;7.90;;;1.13;;
70369;SDS011;57790;51.356;-2.906;2023-12-20T07:11:20;7.47;;;0.70;;
70369;SDS011;57790;51.356;-2.906;2023-12-20T07:14:21;6.72;;;0.80;;
70369;SDS011;57790;51.356;-2.906;2023-12-20T07:17:21;5.93;;;0.50;;
70369;SDS011;57790;51.356;-2.906;2023-12-20T07:20:22;4.65;;;0.88;;
70369;SDS011;57790;51.356;-2.906;2023-12-20T07:23:22;6.67;;;0.87;;
70369;SDS011;57790;51.356;-2.906;2023-12-20T07:26:26;5.60;;;0.88;;
70369;SDS011;57790;51.356;-2.906;2023-12-20T07:29:27;7.17;;;1.00;;
70369;SDS011;57790;51.356;-2.906;2023-12-20T07:32:27;5.43;;;0.90;;
70369;SDS011;57790;51.356;-2.906;2023-12-20T07:35:27;6.80;;;0.77;;
70369;SDS011;57790;51.356;-2.906;2023-12-20T07:38:28;7.60;;;0.80;;
70369;SDS011;57790;51.356;-2.906;2023-12-20T07:41:28;7.57;;;1.03;;
70369;SDS011;57790;51.356;-2.906;2023-12-20T07:44:28;8.27;;;1.00;;
70369;SDS011;57790;51.356;-2.906;2023-12-20T07:47:29;5.13;;;0.80;;
70369;SDS011;57790;51.356;-2.906;2023-12-20T07:50:29;6.03;;;0.87;;
70369;SDS011;57790;51.356;-2.906;2023-12-20T07:53:30;7.60;;;0.80;;
70369;SDS011;57790;51.356;-2.906;2023-12-20T07:56:30;5.37;;;0.70;;
70369;SDS011;57790;51.356;-2.906;2023-12-20T07:59:30;8.80;;;1.00;;
70369;SDS011;57790;51.356;-2.906;2023-12-20T08:02:31;6.03;;;0.80;;
70369;SDS011;57790;51.356;-2.906;2023-12-20T08:05:31;8.52;;;0.82;;
70369;SDS011;57790;51.356;-2.906;2023-12-20T08:08:31;9.00;;;1.00;;
70369;SDS011;57790;51.356;-2.906;2023-12-20T08:11:32;8.23;;;0.93;;
70369;SDS011;57790;51.356;-2.906;2023-12-20T08:14:32;6.50;;;0.60;;
70369;SDS011;57790;51.356;-2.906;2023-12-20T08:17:33;5.53;;;0.70;;
70369;SDS011;57790;51.356;-2.906;2023-12-20T08:20:33;7.95;;;1.00;;
70369;SDS011;57790;51.356;-2.906;2023-12-20T08:23:34;6.17;;;0.70;;
70369;SDS011;57790;51.356;-2.906;2023-12-20T08:26:35;6.87;;;1.07;;
70369;SDS011;57790;51.356;-2.906;2023-12-20T08:29:35;7.27;;;1.07;;
70369;SDS011;57790;51.356;-2.906;2023-12-20T08:32:36;6.17;;;0.97;;
70369;SDS011;57790;51.356;-2.906;2023-12-20T08:35:36;8.47;;;0.80;;
70369;SDS011;57790;51.356;-2.906;2023-12-20T08:38:37;7.47;;;0.70;;
70369;SDS011;57790;51.356;-2.906;2023-12-20T08:41:37;7.80;;;0.70;;
70369;SDS011;57790;51.356;-2.906;2023-12-20T08:44:38;5.60;;;0.80;;
70369;SDS011;57790;51.356;-2.906;2023-12-20T08:47:38;7.97;;;0.80;;
70369;SDS011;57790;51.356;-2.906;2023-12-20T08:50:38;6.80;;;1.10;;
70369;SDS011;57790;51.356;-2.906;2023-12-20T08:53:39;7.90;;;1.00;;
70369;SDS011;57790;51.356;-2.906;2023-12-20T08:56:39;4.75;;;0.85;;
70369;SDS011;57790;51.356;-2.906;2023-12-20T08:59:40;6.73;;;0.73;;
70369;SDS011;57790;51.356;-2.906;2023-12-20T09:02:40;3.37;;;0.60;;
70369;SDS011;57790;51.356;-2.906;2023-12-20T09:05:41;6.18;;;0.90;;
70369;SDS011;57790;51.356;-2.906;2023-12-20T09:08:41;4.13;;;0.70;;
70369;SDS011;57790;51.356;-2.906;2023-12-20T09:11:42;6.20;;;0.70;;
70369;SDS011;57790;51.356;-2.906;2023-12-20T09:14:42;5.50;;;0.67;;
70369;SDS011;57790;51.356;-2.906;2023-12-20T09:17:42;5.83;;;0.80;;
70369;SDS011;57790;51.356;-2.906;2023-12-20T09:20:43;7.27;;;0.67;;
70369;SDS011;57790;51.356;-2.906;2023-12-20T09:23:44;5.47;;;1.03;;
70369;SDS011;57790;51.356;-2.906;2023-12-20T09:26:45;6.38;;;0.85;;
70369;SDS011;57790;51.356;-2.906;2023-12-20T09:29:45;4.20;;;0.73;;
70369;SDS011;57790;51.356;-2.906;2023-12-20T09:32:45;5.03;;;0.70;;
70369;SDS011;57790;51.356;-2.906;2023-12-20T09:35:46;4.53;;;0.53;;
70369;SDS011;57790;51.356;-2.906;2023-12-20T09:38:47;4.38;;;0.90;;
70369;SDS011;57790;51.356;-2.906;2023-12-20T09:41:54;5.60;;;0.90;;
70369;SDS011;57790;51.356;-2.906;2023-12-20T09:45:03;4.75;;;0.60;;
70369;SDS011;57790;51.356;-2.906;2023-12-20T09:48:07;5.38;;;0.95;;
70369;SDS011;57790;51.356;-2.906;2023-12-20T09:51:07;4.87;;;0.50;;
70369;SDS011;57790;51.356;-2.906;2023-12-20T09:54:08;9.00;;;1.13;;
70369;SDS011;57790;51.356;-2.906;2023-12-20T09:57:09;5.73;;;0.50;;
70369;SDS011;57790;51.356;-2.906;2023-12-20T10:00:10;6.40;;;0.77;;
70369;SDS011;57790;51.356;-2.906;2023-12-20T10:03:11;5.28;;;0.80;;
70369;SDS011;57790;51.356;-2.906;2023-12-20T10:06:14;4.33;;;0.97;;
70369;SDS011;57790;51.356;-2.906;2023-12-20T10:09:14;5.57;;;0.80;;
70369;SDS011;57790;51.356;-2.906;2023-12-20T10:12:15;5.83;;;0.70;;
70369;SDS011;57790;51.356;-2.906;2023-12-20T10:15:15;5.07;;;0.70;;
70369;SDS011;57790;51.356;-2.906;2023-12-20T10:18:16;5.97;;;0.70;;
70369;SDS011;57790;51.356;-2.906;2023-12-20T10:21:16;5.10;;;0.57;;
70369;SDS011;57790;51.356;-2.906;2023-12-20T10:24:17;4.18;;;0.80;;
70369;SDS011;57790;51.356;-2.906;2023-12-20T10:27:18;6.67;;;0.80;;
70369;SDS011;57790;51.356;-2.906;2023-12-20T10:30:21;4.50;;;0.60;;
70369;SDS011;57790;51.356;-2.906;2023-12-20T10:33:25;5.30;;;0.63;;
70369;SDS011;57790;51.356;-2.906;2023-12-20T10:36:29;8.07;;;0.60;;
70369;SDS011;57790;51.356;-2.906;2023-12-20T10:39:31;6.60;;;1.15;;
70369;SDS011;57790;51.356;-2.906;2023-12-20T10:42:32;7.43;;;1.33;;
70369;SDS011;57790;51.356;-2.906;2023-12-20T10:45:36;4.13;;;0.60;;
70369;SDS011;57790;51.356;-2.906;2023-12-20T10:48:36;5.10;;;0.77;;
70369;SDS011;57790;51.356;-2.906;2023-12-20T10:51:39;6.20;;;0.65;;
70369;SDS011;57790;51.356;-2.906;2023-12-20T10:54:40;5.03;;;0.57;;
70369;SDS011;57790;51.356;-2.906;2023-12-20T10:57:41;9.47;;;0.97;;
70369;SDS011;57790;51.356;-2.906;2023-12-20T11:00:43;8.30;;;0.82;;
70369;SDS011;57790;51.356;-2.906;2023-12-20T11:03:50;6.88;;;0.70;;
70369;SDS011;57790;51.356;-2.906;2023-12-20T11:06:56;6.22;;;0.80;;
70369;SDS011;57790;51.356;-2.906;2023-12-20T11:13:28;9.80;;;0.90;;
70369;SDS011;57790;51.356;-2.906;2023-12-20T11:16:32;11.68;;;1.40;;
70369;SDS011;57790;51.356;-2.906;2023-12-20T11:19:35;8.43;;;0.80;;
70369;SDS011;57790;51.356;-2.906;2023-12-20T11:22:36;8.32;;;0.75;;
70369;SDS011;57790;51.356;-2.906;2023-12-20T11:25:47;5.30;;;0.70;;
70369;SDS011;57790;51.356;-2.906;2023-12-20T11:32:34;6.17;;;0.60;;
70369;SDS011;57790;51.356;-2.906;2023-12-20T11:35:35;8.68;;;0.82;;
70369;SDS011;57790;51.356;-2.906;2023-12-20T11:38:37;8.48;;;0.80;;
70369;SDS011;57790;51.356;-2.906;2023-12-20T11:41:37;7.80;;;0.70;;
70369;SDS011;57790;51.356;-2.906;2023-12-20T11:44:38;5.77;;;0.67;;
70369;SDS011;57790;51.356;-2.906;2023-12-20T11:47:38;5.25;;;0.68;;
70369;SDS011;57790;51.356;-2.906;2023-12-20T11:50:38;7.53;;;0.60;;
70369;SDS011;57790;51.356;-2.906;2023-12-20T11:53:40;9.35;;;1.38;;
70369;SDS011;57790;51.356;-2.906;2023-12-20T11:56:42;7.73;;;0.77;;
70369;SDS011;57790;51.356;-2.906;2023-12-20T11:59:42;8.35;;;0.88;;
70369;SDS011;57790;51.356;-2.906;2023-12-20T12:02:43;7.43;;;0.87;;
70369;SDS011;57790;51.356;-2.906;2023-12-20T12:05:45;9.93;;;1.00;;
70369;SDS011;57790;51.356;-2.906;2023-12-20T12:08:47;5.97;;;0.70;;
70369;SDS011;57790;51.356;-2.906;2023-12-20T12:11:48;7.97;;;0.73;;
70369;SDS011;57790;51.356;-2.906;2023-12-20T12:14:48;5.83;;;0.80;;
70369;SDS011;57790;51.356;-2.906;2023-12-20T12:17:52;7.93;;;0.85;;
70369;SDS011;57790;51.356;-2.906;2023-12-20T12:21:00;7.80;;;0.73;;
70369;SDS011;57790;51.356;-2.906;2023-12-20T12:24:08;8.03;;;0.87;;
70369;SDS011;57790;51.356;-2.906;2023-12-20T12:27:10;7.68;;;0.85;;
70369;SDS011;57790;51.356;-2.906;2023-12-20T12:30:11;8.75;;;1.10;;
70369;SDS011;57790;51.356;-2.906;2023-12-20T12:33:13;12.98;;;1.40;;
70369;SDS011;57790;51.356;-2.906;2023-12-20T12:36:14;8.57;;;1.23;;
70369;SDS011;57790;51.356;-2.906;2023-12-20T12:39:17;9.52;;;1.13;;
70369;SDS011;57790;51.356;-2.906;2023-12-20T12:42:17;8.18;;;1.08;;
70369;SDS011;57790;51.356;-2.906;2023-12-20T12:45:18;5.03;;;1.10;;
70369;SDS011;57790;51.356;-2.906;2023-12-20T12:48:18;7.00;;;0.87;;
70369;SDS011;57790;51.356;-2.906;2023-12-20T12:51:19;10.37;;;1.00;;
70369;SDS011;57790;51.356;-2.906;2023-12-20T12:54:19;8.73;;;1.10;;
70369;SDS011;57790;51.356;-2.906;2023-12-20T12:57:20;8.98;;;0.93;;
70369;SDS011;57790;51.356;-2.906;2023-12-20T13:00:20;9.63;;;1.07;;
70369;SDS011;57790;51.356;-2.906;2023-12-20T13:03:21;9.00;;;0.77;;
70369;SDS011;57790;51.356;-2.906;2023-12-20T13:06:22;9.90;;;1.10;;
70369;SDS011;57790;51.356;-2.906;2023-12-20T13:09:22;6.53;;;1.07;;
70369;SDS011;57790;51.356;-2.906;2023-12-20T13:12:23;7.37;;;1.20;;
70369;SDS011;57790;51.356;-2.906;2023-12-20T13:15:23;10.83;;;1.07;;
70369;SDS011;57790;51.356;-2.906;2023-12-20T13:18:24;8.25;;;1.20;;
70369;SDS011;57790;51.356;-2.906;2023-12-20T13:21:24;7.53;;;0.97;;
70369;SDS011;57790;51.356;-2.906;2023-12-20T13:24:25;7.17;;;0.60;;
70369;SDS011;57790;51.356;-2.906;2023-12-20T13:27:25;10.77;;;1.30;;
70369;SDS011;57790;51.356;-2.906;2023-12-20T13:30:25;8.03;;;1.20;;
70369;SDS011;57790;51.356;-2.906;2023-12-20T13:33:26;7.77;;;0.83;;
70369;SDS011;57790;51.356;-2.906;2023-12-20T13:36:26;6.78;;;0.88;;
70369;SDS011;57790;51.356;-2.906;2023-12-20T13:39:27;9.10;;;0.83;;
70369;SDS011;57790;51.356;-2.906;2023-12-20T13:42:27;7.80;;;0.80;;
70369;SDS011;57790;51.356;-2.906;2023-12-20T13:45:27;12.20;;;1.07;;
70369;SDS011;57790;51.356;-2.906;2023-12-20T13:48:28;6.73;;;0.83;;
70369;SDS011;57790;51.356;-2.906;2023-12-20T13:51:28;6.03;;;0.80;;
70369;SDS011;57790;51.356;-2.906;2023-12-20T13:54:28;4.97;;;0.97;;
70369;SDS011;57790;51.356;-2.906;2023-12-20T13:57:29;10.23;;;1.20;;
70369;SDS011;57790;51.356;-2.906;2023-12-20T14:00:29;8.38;;;0.82;;
70369;SDS011;57790;51.356;-2.906;2023-12-20T14:03:30;9.03;;;1.00;;
70369;SDS011;57790;51.356;-2.906;2023-12-20T14:06:31;10.80;;;1.50;;
70369;SDS011;57790;51.356;-2.906;2023-12-20T14:09:31;12.23;;;1.37;;
70369;SDS011;57790;51.356;-2.906;2023-12-20T14:12:32;8.10;;;1.20;;
70369;SDS011;57790;51.356;-2.906;2023-12-20T14:15:36;11.02;;;1.00;;
70369;SDS011;57790;51.356;-2.906;2023-12-20T14:18:37;14.35;;;1.40;;
70369;SDS011;57790;51.356;-2.906;2023-12-20T14:21:37;9.30;;;1.13;;
70369;SDS011;57790;51.356;-2.906;2023-12-20T14:24:37;8.80;;;1.17;;
70369;SDS011;57790;51.356;-2.906;2023-12-20T14:27:38;6.73;;;1.00;;
70369;SDS011;57790;51.356;-2.906;2023-12-20T14:30:40;12.55;;;1.70;;
70369;SDS011;57790;51.356;-2.906;2023-12-20T14:33:40;8.45;;;1.00;;
70369;SDS011;57790;51.356;-2.906;2023-12-20T14:36:42;12.27;;;1.40;;
70369;SDS011;57790;51.356;-2.906;2023-12-20T14:39:42;9.52;;;1.02;;
70369;SDS011;57790;51.356;-2.906;2023-12-20T14:42:43;12.90;;;1.60;;
70369;SDS011;57790;51.356;-2.906;2023-12-20T14:45:44;9.10;;;1.50;;
70369;SDS011;57790;51.356;-2.906;2023-12-20T14:48:44;13.20;;;1.50;;
70369;SDS011;57790;51.356;-2.906;2023-12-20T14:51:45;12.70;;;1.60;;
70369;SDS011;57790;51.356;-2.906;2023-12-20T14:54:47;12.68;;;1.75;;
70369;SDS011;57790;51.356;-2.906;2023-12-20T14:57:48;11.80;;;1.63;;
70369;SDS011;57790;51.356;-2.906;2023-12-20T15:00:49;8.13;;;1.23;;
70369;SDS011;57790;51.356;-2.906;2023-12-20T15:03:49;10.97;;;1.70;;
70369;SDS011;57790;51.356;-2.906;2023-12-20T15:06:50;9.67;;;1.30;;
70369;SDS011;57790;51.356;-2.906;2023-12-20T15:09:50;10.63;;;1.80;;
70369;SDS011;57790;51.356;-2.906;2023-12-20T15:12:50;10.20;;;1.80;;
70369;SDS011;57790;51.356;-2.906;2023-12-20T15:15:51;13.85;;;1.77;;
70369;SDS011;57790;51.356;-2.906;2023-12-20T15:18:52;10.27;;;1.70;;
70369;SDS011;57790;51.356;-2.906;2023-12-20T15:21:53;8.03;;;1.00;;
70369;SDS011;57790;51.356;-2.906;2023-12-20T15:24:53;13.48;;;1.70;;
70369;SDS011;57790;51.356;-2.906;2023-12-20T15:27:55;10.93;;;1.10;;
70369;SDS011;57790;51.356;-2.906;2023-12-20T15:30:55;12.77;;;1.30;;
70369;SDS011;57790;51.356;-2.906;2023-12-20T15:33:56;8.90;;;1.30;;
70369;SDS011;57790;51.356;-2.906;2023-12-20T15:36:57;12.93;;;1.50;;
70369;SDS011;57790;51.356;-2.906;2023-12-20T15:39:57;11.23;;;1.40;;
70369;SDS011;57790;51.356;-2.906;2023-12-20T15:42:58;15.60;;;2.00;;
70369;SDS011;57790;51.356;-2.906;2023-12-20T15:45:59;11.52;;;2.28;;
70369;SDS011;57790;51.356;-2.906;2023-12-20T15:49:00;13.10;;;2.03;;
70369;SDS011;57790;51.356;-2.906;2023-12-20T15:52:00;14.73;;;1.67;;
70369;SDS011;57790;51.356;-2.906;2023-12-20T15:55:01;13.53;;;1.50;;
70369;SDS011;57790;51.356;-2.906;2023-12-20T15:58:01;14.73;;;1.63;;
70369;SDS011;57790;51.356;-2.906;2023-12-20T16:01:02;15.03;;;1.77;;
70369;SDS011;57790;51.356;-2.906;2023-12-20T16:04:02;13.30;;;1.88;;
70369;SDS011;57790;51.356;-2.906;2023-12-20T16:07:03;15.63;;;2.03;;
70369;SDS011;57790;51.356;-2.906;2023-12-20T16:10:03;13.80;;;1.87;;
70369;SDS011;57790;51.356;-2.906;2023-12-20T16:13:04;16.52;;;1.83;;
70369;SDS011;57790;51.356;-2.906;2023-12-20T16:16:05;15.30;;;2.00;;
70369;SDS011;57790;51.356;-2.906;2023-12-20T16:19:06;12.95;;;1.58;;
70369;SDS011;57790;51.356;-2.906;2023-12-20T16:22:07;14.25;;;2.25;;
70369;SDS011;57790;51.356;-2.906;2023-12-20T16:25:07;12.90;;;1.70;;
70369;SDS011;57790;51.356;-2.906;2023-12-20T16:28:08;14.20;;;2.38;;
70369;SDS011;57790;51.356;-2.906;2023-12-20T16:31:09;14.00;;;2.30;;
70369;SDS011;57790;51.356;-2.906;2023-12-20T16:34:09;12.43;;;1.90;;
70369;SDS011;57790;51.356;-2.906;2023-12-20T16:37:09;17.97;;;2.10;;
70369;SDS011;57790;51.356;-2.906;2023-12-20T16:40:10;15.07;;;2.40;;
70369;SDS011;57790;51.356;-2.906;2023-12-20T16:43:11;15.68;;;2.33;;
70369;SDS011;57790;51.356;-2.906;2023-12-20T16:46:11;20.10;;;2.63;;
70369;SDS011;57790;51.356;-2.906;2023-12-20T16:49:12;14.75;;;1.95;;
70369;SDS011;57790;51.356;-2.906;2023-12-20T16:52:12;17.43;;;2.27;;
70369;SDS011;57790;51.356;-2.906;2023-12-20T16:55:14;16.70;;;1.97;;
70369;SDS011;57790;51.356;-2.906;2023-12-20T16:58:14;17.27;;;1.95;;
70369;SDS011;57790;51.356;-2.906;2023-12-20T17:01:16;20.02;;;2.83;;
70369;SDS011;57790;51.356;-2.906;2023-12-20T17:04:16;19.40;;;2.33;;
70369;SDS011;57790;51.356;-2.906;2023-12-20T17:07:17;19.27;;;2.50;;
70369;SDS011;57790;51.356;-2.906;2023-12-20T17:10:17;16.70;;;2.22;;
70369;SDS011;57790;51.356;-2.906;2023-12-20T17:13:18;18.03;;;2.13;;
70369;SDS011;57790;51.356;-2.906;2023-12-20T17:16:18;17.50;;;2.33;;
70369;SDS011;57790;51.356;-2.906;2023-12-20T17:19:18;21.73;;;2.27;;
70369;SDS011;57790;51.356;-2.906;2023-12-20T17:22:20;17.27;;;2.50;;
70369;SDS011;57790;51.356;-2.906;2023-12-20T17:25:20;18.27;;;2.27;;
70369;SDS011;57790;51.356;-2.906;2023-12-20T17:28:21;16.42;;;2.40;;
70369;SDS011;57790;51.356;-2.906;2023-12-20T17:31:22;21.43;;;2.83;;
70369;SDS011;57790;51.356;-2.906;2023-12-20T17:34:22;21.87;;;3.10;;
70369;SDS011;57790;51.356;-2.906;2023-12-20T17:37:23;18.70;;;2.42;;
70369;SDS011;57790;51.356;-2.906;2023-12-20T17:40:23;19.43;;;2.80;;
70369;SDS011;57790;51.356;-2.906;2023-12-20T17:43:24;21.77;;;3.00;;
70369;SDS011;57790;51.356;-2.906;2023-12-20T17:46:24;19.75;;;3.03;;
70369;SDS011;57790;51.356;-2.906;2023-12-20T17:49:25;23.13;;;2.73;;
70369;SDS011;57790;51.356;-2.906;2023-12-20T17:52:25;19.13;;;2.93;;
70369;SDS011;57790;51.356;-2.906;2023-12-20T17:55:25;19.27;;;2.40;;